In Rescue
 
Open Full Screen Window  High Contrast Mode
Wind Gusting 26 knots
16
March 29, 2020 7:42 PM EDT
Weather Information
Wind Direction
  240 °
Wind Speed
  16 kt (18 mph)
Wind Gust
  26 kt (30 mph)
Altimeter
29.87 in
Visibility
7 SM
Temperature
13° C
55° F
Dewpoint
06° C
43° F
Humidity
63%
Sky Condition
Broken @ 7,000 ft
Scattered @ 5,000 ft
VFR

METAR KAXV 292342Z AUTO 24016G26KT 7SM SCT050 BKN070 13/06 A2987 RMK AO2

FAA Disclaimer: The data displayed is for advisory purposes only and is not to be used for flight planning or operations.